Time;durP1;ratioP1;P1;durP2;ratioP2;P2;SDS_P1;SDS_P2;PMS_P1;PMS_P2;Temp;Humidity;BMP_temperature;BMP_pressure;BME280_temperature;BME280_humidity;BME280_pressure;Samples;Min_cycle;Max_cycle;Signal;HPM_P1;HPM_P2
2022/08/18 00:01:48;;;;;;;26.75;23.88;;;;;;;;;;5024593;28;21335;-12
2022/08/18 00:04:17;;;;;;;27.05;23.40;;;;;;;;;;5023981;28;20234;-12
2022/08/18 00:07:03;;;;;;;24.92;22.42;;;;;;;;;;5032228;28;20251;-12
2022/08/18 00:09:30;;;;;;;29.48;24.10;;;;;;;;;;5032380;28;20721;-12
2022/08/18 00:12:00;;;;;;;32.00;27.48;;;;;;;;;;5032531;28;20231;-12
2022/08/18 00:14:27;;;;;;;32.58;23.90;;;;;;;;;;5032238;28;20227;-12
2022/08/18 00:16:56;;;;;;;28.90;24.33;;;;;;;;;;5032520;28;20351;-12
2022/08/18 00:19:23;;;;;;;26.27;21.52;;;;;;;;;;5032527;28;20231;-12
2022/08/18 00:22:12;;;;;;;26.25;21.83;;;;;;;;;;5031261;28;20755;-12
2022/08/18 00:24:41;;;;;;;24.67;22.17;;;;;;;;;;5026483;28;20337;-12
2022/08/18 00:27:17;;;;;;;24.92;19.92;;;;;;;;;;5031918;28;20230;-12
2022/08/18 00:29:45;;;;;;;22.90;18.70;;;;;;;;;;5032259;28;20249;-12
2022/08/18 00:32:14;;;;;;;22.02;19.52;;;;;;;;;;5032360;28;20230;-14
2022/08/18 00:34:41;;;;;;;18.63;16.75;;;;;;;;;;5032214;28;20231;-12
2022/08/18 00:37:09;;;;;;;21.40;18.05;;;;;;;;;;5031880;28;20234;-13
2022/08/18 00:39:36;;;;;;;20.83;17.17;;;;;;;;;;5032275;28;20235;-12
2022/08/18 00:42:13;;;;;;;21.65;18.23;;;;;;;;;;5032486;28;20325;-12
2022/08/18 00:44:56;;;;;;;23.73;18.45;;;;;;;;;;5032177;28;20725;-12
2022/08/18 00:47:27;;;;;;;19.60;15.68;;;;;;;;;;5039712;28;20230;-12
2022/08/18 00:50:09;;;;;;;20.23;16.30;;;;;;;;;;5031616;28;20400;-12
2022/08/18 00:52:41;;;;;;;19.25;16.08;;;;;;;;;;5032127;28;20250;-12
2022/08/18 00:55:09;;;;;;;17.05;15.35;;;;;;;;;;5031762;28;20231;-12
2022/08/18 00:57:37;;;;;;;16.15;13.93;;;;;;;;;;5031425;28;20402;-12
2022/08/18 01:00:09;;;;;;;21.15;15.57;;;;;;;;;;5031747;28;20237;-12
2022/08/18 01:02:39;;;;;;;18.70;15.90;;;;;;;;;;5026482;28;20862;-12
2022/08/18 01:05:07;;;;;;;18.45;14.77;;;;;;;;;;5032007;28;20241;-12
2022/08/18 01:07:35;;;;;;;20.80;17.45;;;;;;;;;;5032015;28;20234;-12
2022/08/18 01:10:04;;;;;;;19.55;17.33;;;;;;;;;;5030810;28;20247;-12
2022/08/18 01:12:32;;;;;;;16.73;14.93;;;;;;;;;;5030487;28;20233;-12
2022/08/18 01:15:13;;;;;;;17.48;15.15;;;;;;;;;;5031424;28;20230;-12
2022/08/18 01:23:29;;;;;;;16.48;14.77;;;;;;;;;;5030153;28;20236;-12
2022/08/18 01:25:59;;;;;;;14.77;13.27;;;;;;;;;;5030819;28;20567;-12
2022/08/18 01:28:26;;;;;;;14.65;12.90;;;;;;;;;;5030747;28;20604;-12
2022/08/18 01:30:56;;;;;;;18.50;13.25;;;;;;;;;;5031134;28;20243;-12
2022/08/18 01:33:25;;;;;;;15.70;13.55;;;;;;;;;;5031181;28;20238;-12
2022/08/18 01:35:57;;;;;;;15.45;13.18;;;;;;;;;;5031383;28;20705;-12
2022/08/18 01:38:25;;;;;;;16.38;14.10;;;;;;;;;;5030268;28;20725;-12
2022/08/18 01:40:54;;;;;;;17.48;15.02;;;;;;;;;;5031032;28;20231;-12
2022/08/18 01:43:41;;;;;;;21.95;19.58;;;;;;;;;;5031145;28;20234;-12
2022/08/18 01:46:09;;;;;;;24.65;21.65;;;;;;;;;;5031343;28;20226;-12
2022/08/18 01:48:36;;;;;;;26.95;21.35;;;;;;;;;;5030757;28;20223;-12
2022/08/18 01:51:04;;;;;;;26.42;21.48;;;;;;;;;;5030430;28;20250;-12
2022/08/18 01:53:31;;;;;;;25.55;21.17;;;;;;;;;;5030819;28;20235;-12
2022/08/18 01:56:04;;;;;;;24.40;21.75;;;;;;;;;;5030962;28;20226;-12
2022/08/18 01:58:31;;;;;;;27.92;22.38;;;;;;;;;;5031217;28;20266;-12
2022/08/18 02:01:00;;;;;;;25.65;21.45;;;;;;;;;;5030473;28;20238;-13
2022/08/18 02:03:28;;;;;;;24.73;21.40;;;;;;;;;;5030302;28;20324;-14
2022/08/18 02:05:56;;;;;;;23.85;21.38;;;;;;;;;;5030583;28;20241;-14
2022/08/18 02:08:23;;;;;;;23.95;21.35;;;;;;;;;;5031189;28;20239;-14
2022/08/18 02:10:57;;;;;;;23.33;20.88;;;;;;;;;;5030703;28;20243;-14
2022/08/18 02:13:25;;;;;;;24.98;19.88;;;;;;;;;;5030276;28;20233;-12
2022/08/18 02:15:53;;;;;;;23.25;20.85;;;;;;;;;;5030877;28;20694;-14
2022/08/18 02:18:21;;;;;;;23.65;21.17;;;;;;;;;;5030667;28;20239;-12
2022/08/18 02:21:09;;;;;;;24.50;21.85;;;;;;;;;;5051533;22;21828;-15
2022/08/18 02:23:36;;;;;;;23.83;21.25;;;;;;;;;;5053348;28;20701;-15
2022/08/18 02:26:04;;;;;;;25.00;22.27;;;;;;;;;;5058419;28;20233;-15
2022/08/18 02:28:33;;;;;;;22.85;20.27;;;;;;;;;;5067978;28;20225;-15
2022/08/18 02:31:03;;;;;;;24.70;19.70;;;;;;;;;;5063235;28;20233;-15
2022/08/18 02:33:30;;;;;;;26.70;20.98;;;;;;;;;;5068022;28;21095;-16
2022/08/18 02:35:58;;;;;;;24.75;20.88;;;;;;;;;;5071375;28;20229;-16
2022/08/18 02:38:25;;;;;;;24.65;19.92;;;;;;;;;;5067688;28;20241;-16
2022/08/18 02:40:56;;;;;;;23.42;20.73;;;;;;;;;;5064647;28;20229;-16
2022/08/18 02:43:24;;;;;;;24.42;21.02;;;;;;;;;;5070449;28;20701;-16
2022/08/18 02:45:52;;;;;;;21.65;19.40;;;;;;;;;;5060111;28;20698;-16
2022/08/18 02:48:22;;;;;;;23.77;19.30;;;;;;;;;;5068666;28;20233;-16
2022/08/18 02:50:50;;;;;;;22.95;20.00;;;;;;;;;;5070307;28;20238;-16
2022/08/18 02:53:21;;;;;;;24.48;19.15;;;;;;;;;;5070000;28;20278;-16
2022/08/18 02:55:49;;;;;;;21.33;19.02;;;;;;;;;;5063559;28;20720;-16
2022/08/18 02:58:19;;;;;;;21.85;19.15;;;;;;;;;;5066179;28;20390;-16
2022/08/18 03:00:46;;;;;;;22.75;20.02;;;;;;;;;;5064387;28;20238;-15
2022/08/18 03:03:15;;;;;;;22.08;18.55;;;;;;;;;;5064770;28;20241;-16
2022/08/18 03:05:42;;;;;;;22.38;19.98;;;;;;;;;;5070133;28;21323;-16
2022/08/18 03:08:10;;;;;;;21.65;19.30;;;;;;;;;;5065691;28;20236;-15
2022/08/18 03:10:37;;;;;;;24.65;20.92;;;;;;;;;;5070062;28;20244;-16
2022/08/18 03:13:05;;;;;;;22.65;20.13;;;;;;;;;;5070139;28;20238;-16
2022/08/18 03:15:32;;;;;;;24.08;19.80;;;;;;;;;;5069862;28;20713;-15
2022/08/18 03:18:00;;;;;;;26.13;20.73;;;;;;;;;;5068616;28;20267;-15
2022/08/18 03:20:29;;;;;;;21.45;18.58;;;;;;;;;;5067944;28;20814;-15
2022/08/18 03:22:58;;;;;;;26.52;19.23;;;;;;;;;;5041132;28;20232;-15
2022/08/18 03:25:31;;;;;;;21.35;18.33;;;;;;;;;;5045502;28;20234;-16
2022/08/18 03:27:59;;;;;;;24.25;19.20;;;;;;;;;;5050220;28;20234;-16
2022/08/18 03:30:26;;;;;;;24.25;18.67;;;;;;;;;;5033842;28;21632;-16
2022/08/18 03:32:54;;;;;;;24.10;19.17;;;;;;;;;;5050587;28;20236;-16
2022/08/18 03:35:21;;;;;;;23.98;18.92;;;;;;;;;;5053672;28;20230;-16
2022/08/18 03:37:50;;;;;;;23.95;18.48;;;;;;;;;;5053294;28;20237;-15
2022/08/18 03:40:17;;;;;;;19.83;17.33;;;;;;;;;;5043141;28;20230;-15
2022/08/18 03:42:45;;;;;;;21.52;16.63;;;;;;;;;;5049008;28;20234;-16
2022/08/18 03:45:12;;;;;;;22.90;18.13;;;;;;;;;;5051541;28;20724;-15
2022/08/18 03:47:45;;;;;;;21.48;17.38;;;;;;;;;;5048887;28;20422;-15
2022/08/18 03:50:12;;;;;;;21.58;17.35;;;;;;;;;;5051932;28;20237;-16
2022/08/18 03:52:40;;;;;;;20.27;17.08;;;;;;;;;;5047314;28;20625;-16
2022/08/18 03:55:09;;;;;;;22.40;17.25;;;;;;;;;;5052890;28;20237;-16
2022/08/18 03:57:37;;;;;;;23.48;16.80;;;;;;;;;;5052945;28;21018;-16
2022/08/18 04:00:08;;;;;;;20.85;15.88;;;;;;;;;;5052879;28;20241;-15
2022/08/18 04:02:35;;;;;;;17.77;14.52;;;;;;;;;;5032710;28;20219;-16
2022/08/18 04:05:03;;;;;;;20.52;14.93;;;;;;;;;;5050998;28;20234;-15
2022/08/18 04:07:31;;;;;;;16.98;14.85;;;;;;;;;;5052104;28;20234;-16
2022/08/18 04:09:59;;;;;;;22.45;14.77;;;;;;;;;;5052696;28;20230;-16
2022/08/18 04:12:27;;;;;;;17.83;13.90;;;;;;;;;;5049347;28;20245;-16
2022/08/18 04:14:55;;;;;;;15.15;13.40;;;;;;;;;;5046816;28;20277;-15
2022/08/18 04:17:23;;;;;;;18.30;14.40;;;;;;;;;;5032510;28;20250;-15
2022/08/18 04:19:51;;;;;;;19.55;15.90;;;;;;;;;;5046794;28;20261;-15
2022/08/18 04:22:19;;;;;;;17.95;15.00;;;;;;;;;;5024812;28;20249;-16
2022/08/18 04:24:46;;;;;;;20.30;14.80;;;;;;;;;;5050656;28;20245;-16
2022/08/18 04:27:16;;;;;;;17.90;15.60;;;;;;;;;;5052206;28;20268;-15
2022/08/18 04:29:44;;;;;;;21.15;16.63;;;;;;;;;;5052354;28;20233;-16
2022/08/18 04:32:12;;;;;;;19.80;15.50;;;;;;;;;;5037471;28;20242;-15
2022/08/18 04:34:39;;;;;;;25.55;16.52;;;;;;;;;;5047324;28;20851;-15
2022/08/18 04:37:07;;;;;;;22.45;16.38;;;;;;;;;;5047961;28;20244;-16
2022/08/18 04:39:35;;;;;;;21.85;16.92;;;;;;;;;;5052021;28;20238;-15
2022/08/18 04:42:03;;;;;;;24.63;16.60;;;;;;;;;;5052255;28;20999;-16
2022/08/18 04:44:30;;;;;;;19.40;16.65;;;;;;;;;;5051813;28;20241;-16
2022/08/18 04:47:00;;;;;;;23.70;16.67;;;;;;;;;;5044855;28;20237;-15
2022/08/18 04:49:29;;;;;;;18.48;14.95;;;;;;;;;;5051881;28;20694;-16
2022/08/18 04:55:02;;;;;;;17.25;15.45;;;;;;;;;;5052154;28;20234;-16
2022/08/18 04:57:32;;;;;;;20.23;14.45;;;;;;;;;;5039567;28;20218;-16
2022/08/18 05:00:01;;;;;;;25.60;15.70;;;;;;;;;;5050421;28;20238;-16
2022/08/18 05:02:31;;;;;;;22.38;16.10;;;;;;;;;;5042742;28;20240;-16
2022/08/18 05:05:00;;;;;;;26.80;15.88;;;;;;;;;;5051941;28;20223;-15
2022/08/18 05:07:27;;;;;;;19.75;14.77;;;;;;;;;;5048224;28;21523;-15
2022/08/18 05:09:55;;;;;;;19.20;15.45;;;;;;;;;;5047799;28;20233;-16
2022/08/18 05:12:23;;;;;;;24.08;15.75;;;;;;;;;;5051501;28;20242;-15
2022/08/18 05:14:53;;;;;;;18.67;13.88;;;;;;;;;;5051566;28;20234;-16
2022/08/18 05:17:20;;;;;;;18.23;15.27;;;;;;;;;;5032546;28;20811;-15
2022/08/18 05:19:51;;;;;;;16.55;13.57;;;;;;;;;;5031160;28;20230;-15
2022/08/18 05:22:19;;;;;;;16.65;12.23;;;;;;;;;;5022522;28;20245;-16
2022/08/18 05:24:56;;;;;;;15.55;13.10;;;;;;;;;;5051496;28;20701;-15
2022/08/18 05:27:24;;;;;;;19.77;14.45;;;;;;;;;;5051644;28;20253;-15
2022/08/18 05:29:51;;;;;;;20.75;13.77;;;;;;;;;;5044761;28;20238;-16
2022/08/18 05:32:19;;;;;;;19.48;14.10;;;;;;;;;;5036018;28;20238;-15
2022/08/18 05:35:08;;;;;;;21.85;14.18;;;;;;;;;;5051448;28;20230;-16
2022/08/18 05:37:36;;;;;;;19.52;13.95;;;;;;;;;;5043261;28;20238;-16
2022/08/18 05:40:05;;;;;;;17.40;13.02;;;;;;;;;;5051503;28;20235;-16
2022/08/18 05:42:38;;;;;;;19.83;11.98;;;;;;;;;;5051116;28;20234;-16
2022/08/18 05:45:08;;;;;;;16.13;13.43;;;;;;;;;;5050786;28;20237;-16
2022/08/18 05:47:35;;;;;;;18.42;13.48;;;;;;;;;;5045119;28;20590;-15
2022/08/18 05:50:03;;;;;;;19.55;13.70;;;;;;;;;;5051353;28;20724;-16
2022/08/18 05:52:33;;;;;;;18.35;13.18;;;;;;;;;;5039082;28;20325;-16
2022/08/18 05:57:50;;;;;;;14.45;12.00;;;;;;;;;;5051210;28;20222;-16
2022/08/18 06:00:19;;;;;;;15.93;11.57;;;;;;;;;;5049212;28;20288;-16
2022/08/18 06:02:49;;;;;;;13.93;11.80;;;;;;;;;;5038582;28;20235;-16
2022/08/18 06:05:20;;;;;;;15.88;12.82;;;;;;;;;;5037198;28;20978;-15
2022/08/18 06:07:51;;;;;;;17.17;14.68;;;;;;;;;;5050881;28;20261;-16
2022/08/18 06:10:19;;;;;;;17.33;13.38;;;;;;;;;;5050922;28;20708;-16
2022/08/18 06:12:48;;;;;;;22.45;13.15;;;;;;;;;;5050135;28;20238;-15
2022/08/18 06:15:15;;;;;;;16.27;13.52;;;;;;;;;;5032071;28;20233;-15
2022/08/18 06:17:47;;;;;;;16.95;14.20;;;;;;;;;;5030890;28;20289;-16
2022/08/18 06:20:15;;;;;;;15.82;13.95;;;;;;;;;;5031124;28;20239;-16
2022/08/18 06:22:44;;;;;;;16.88;12.75;;;;;;;;;;5030563;28;20234;-15
2022/08/18 06:25:24;;;;;;;18.00;12.88;;;;;;;;;;5030126;28;20337;-15
2022/08/18 06:27:54;;;;;;;17.77;13.52;;;;;;;;;;5030918;28;20241;-16
2022/08/18 06:30:22;;;;;;;20.38;14.10;;;;;;;;;;5030164;28;20242;-15
2022/08/18 06:33:01;;;;;;;15.95;12.20;;;;;;;;;;5027996;28;20241;-15
2022/08/18 06:35:33;;;;;;;13.07;11.63;;;;;;;;;;5030041;28;20234;-16
2022/08/18 06:40:50;;;;;;;15.05;12.15;;;;;;;;;;5027239;28;20261;-16
2022/08/18 06:43:18;;;;;;;15.95;10.93;;;;;;;;;;5029839;28;20237;-15
2022/08/18 06:45:47;;;;;;;17.10;12.25;;;;;;;;;;5030088;28;20223;-16
2022/08/18 06:48:30;;;;;;;17.77;11.98;;;;;;;;;;5029290;28;20748;-15
2022/08/18 06:50:59;;;;;;;17.48;13.07;;;;;;;;;;5029468;28;20242;-15
2022/08/18 06:53:41;;;;;;;13.75;12.25;;;;;;;;;;5026884;28;20726;-16
2022/08/18 06:56:19;;;;;;;16.75;12.10;;;;;;;;;;5017965;28;20234;-15
2022/08/18 06:58:54;;;;;;;13.82;10.63;;;;;;;;;;5027069;28;20226;-16
2022/08/18 07:01:21;;;;;;;11.73;9.60;;;;;;;;;;5028822;28;20241;-16
2022/08/18 07:03:50;;;;;;;14.10;10.43;;;;;;;;;;5026666;28;20309;-16
2022/08/18 07:06:24;;;;;;;12.43;10.25;;;;;;;;;;5031488;28;20280;-16
2022/08/18 07:08:52;;;;;;;13.40;10.35;;;;;;;;;;5031105;28;20265;-15
2022/08/18 07:11:22;;;;;;;15.02;10.95;;;;;;;;;;5033601;28;20996;-16
2022/08/18 07:13:50;;;;;;;11.98;9.45;;;;;;;;;;5030726;28;20241;-16
2022/08/18 07:16:38;;;;;;;15.75;10.70;;;;;;;;;;5032182;28;20246;-16
2022/08/18 07:19:27;;;;;;;15.05;10.40;;;;;;;;;;5032128;28;20238;-15
2022/08/18 07:22:01;;;;;;;13.63;9.75;;;;;;;;;;5032117;28;20584;-16
2022/08/18 07:24:28;;;;;;;12.45;8.20;;;;;;;;;;5032772;28;20238;-16
2022/08/18 07:27:01;;;;;;;14.68;9.65;;;;;;;;;;5030020;28;20231;-16
2022/08/18 07:29:29;;;;;;;14.80;11.88;;;;;;;;;;5025802;28;21218;-15
2022/08/18 07:31:57;;;;;;;14.52;11.07;;;;;;;;;;5030133;28;20242;-16
2022/08/18 07:34:25;;;;;;;15.63;10.43;;;;;;;;;;5029643;28;20950;-16
2022/08/18 07:36:54;;;;;;;14.70;11.65;;;;;;;;;;5030570;28;20234;-15
2022/08/18 07:39:22;;;;;;;14.60;10.43;;;;;;;;;;5029765;28;20230;-16
2022/08/18 07:41:50;;;;;;;14.88;10.10;;;;;;;;;;5025517;28;20694;-16
2022/08/18 07:44:20;;;;;;;10.20;8.13;;;;;;;;;;5028777;28;20985;-15
2022/08/18 07:46:50;;;;;;;13.32;7.60;;;;;;;;;;5029727;28;20239;-15
2022/08/18 07:49:18;;;;;;;13.20;7.72;;;;;;;;;;5033668;28;20644;-16
2022/08/18 07:51:49;;;;;;;14.98;7.20;;;;;;;;;;5029604;28;20301;-15
2022/08/18 07:54:22;;;;;;;13.00;8.18;;;;;;;;;;5029955;28;20246;-15
2022/08/18 07:57:11;;;;;;;11.25;7.80;;;;;;;;;;5027695;28;20242;-15
2022/08/18 07:59:48;;;;;;;11.15;6.90;;;;;;;;;;5040865;28;20701;-15
2022/08/18 08:02:20;;;;;;;7.57;6.35;;;;;;;;;;5033469;28;20610;-16
2022/08/18 08:04:49;;;;;;;10.05;5.55;;;;;;;;;;5033696;28;20233;-16
2022/08/18 08:07:17;;;;;;;9.00;5.22;;;;;;;;;;5033557;28;20246;-16
2022/08/18 08:09:53;;;;;;;9.68;4.57;;;;;;;;;;5032668;28;20243;-16
2022/08/18 08:12:23;;;;;;;7.45;5.07;;;;;;;;;;5032751;28;20239;-15
2022/08/18 08:14:53;;;;;;;8.82;5.28;;;;;;;;;;5031882;28;20246;-16
2022/08/18 08:17:23;;;;;;;5.82;4.80;;;;;;;;;;5026961;28;20269;-15
2022/08/18 08:20:07;;;;;;;7.55;5.80;;;;;;;;;;5028224;28;20235;-15
2022/08/18 08:22:37;;;;;;;10.13;5.45;;;;;;;;;;5028385;28;20289;-17
2022/08/18 08:25:06;;;;;;;9.55;5.60;;;;;;;;;;5026708;28;20289;-15
2022/08/18 08:28:01;;;;;;;9.73;5.60;;;;;;;;;;5029202;28;20238;-16
2022/08/18 08:30:31;;;;;;;9.45;5.95;;;;;;;;;;5028725;28;20257;-16
2022/08/18 08:33:02;;;;;;;8.20;5.68;;;;;;;;;;5029058;28;20281;-16
2022/08/18 08:35:32;;;;;;;9.65;5.75;;;;;;;;;;5027585;28;20330;-15
2022/08/18 08:38:17;;;;;;;9.82;5.93;;;;;;;;;;5033610;28;21083;-16
2022/08/18 08:41:05;;;;;;;15.50;5.82;;;;;;;;;;5033571;28;20226;-16
2022/08/18 08:43:34;;;;;;;20.35;5.90;;;;;;;;;;5035774;28;20219;-17
2022/08/18 08:46:07;;;;;;;8.23;5.50;;;;;;;;;;5028100;28;20231;-16
2022/08/18 08:48:35;;;;;;;10.55;5.72;;;;;;;;;;5031023;28;20241;-17
2022/08/18 08:51:03;;;;;;;11.50;5.03;;;;;;;;;;5031295;28;20246;-16
2022/08/18 08:53:34;;;;;;;9.15;5.35;;;;;;;;;;5028598;28;20243;-15
2022/08/18 08:56:02;;;;;;;8.98;5.25;;;;;;;;;;5028214;28;20241;-16
2022/08/18 08:58:31;;;;;;;7.70;5.30;;;;;;;;;;5026889;28;20231;-16
2022/08/18 09:00:58;;;;;;;10.82;5.68;;;;;;;;;;5027645;28;20242;-16
2022/08/18 09:03:30;;;;;;;10.32;5.57;;;;;;;;;;5027602;28;20238;-15
2022/08/18 09:06:01;;;;;;;5.97;5.22;;;;;;;;;;5025828;28;20239;-16
2022/08/18 09:08:32;;;;;;;9.50;5.05;;;;;;;;;;5027776;28;20230;-16
2022/08/18 09:11:20;;;;;;;11.23;5.28;;;;;;;;;;5027821;28;20242;-16
2022/08/18 09:13:52;;;;;;;7.68;5.00;;;;;;;;;;5030979;28;20269;-16
2022/08/18 09:16:22;;;;;;;8.63;5.15;;;;;;;;;;5026763;28;20242;-16
2022/08/18 09:18:59;;;;;;;7.90;4.78;;;;;;;;;;5029020;28;20698;-15
2022/08/18 09:21:29;;;;;;;6.60;4.70;;;;;;;;;;5027621;28;20796;-16
2022/08/18 09:24:02;;;;;;;8.30;5.30;;;;;;;;;;5029972;28;20710;-16
2022/08/18 09:26:39;;;;;;;9.57;5.00;;;;;;;;;;5027341;28;20242;-16
2022/08/18 09:29:13;;;;;;;8.25;5.07;;;;;;;;;;5032234;28;20230;-16
2022/08/18 09:31:42;;;;;;;8.50;4.57;;;;;;;;;;5027303;28;20234;-15
2022/08/18 09:34:30;;;;;;;5.18;4.68;;;;;;;;;;5028405;28;20238;-16
2022/08/18 09:37:04;;;;;;;12.38;5.05;;;;;;;;;;5031027;28;20234;-15
2022/08/18 09:42:31;;;;;;;8.00;4.97;;;;;;;;;;5027079;28;20379;-17
2022/08/18 09:45:30;;;;;;;6.47;4.75;;;;;;;;;;5026458;28;20245;-15
2022/08/18 09:48:00;;;;;;;7.13;4.80;;;;;;;;;;5032965;28;20233;-15
2022/08/18 09:50:34;;;;;;;9.55;6.18;;;;;;;;;;5031267;28;20293;-15
2022/08/18 09:53:18;;;;;;;8.25;5.38;;;;;;;;;;5031062;28;20311;-15
2022/08/18 09:55:53;;;;;;;5.80;4.32;;;;;;;;;;5035041;28;20253;-15
2022/08/18 09:58:45;;;;;;;9.98;4.72;;;;;;;;;;5031808;28;20330;-16
2022/08/18 10:01:20;;;;;;;5.03;4.32;;;;;;;;;;5033110;28;20238;-16
2022/08/18 10:04:02;;;;;;;8.05;4.00;;;;;;;;;;5027803;28;21107;-16
2022/08/18 10:06:29;;;;;;;5.15;4.22;;;;;;;;;;5026218;28;20239;-16
2022/08/18 10:09:18;;;;;;;8.13;4.80;;;;;;;;;;5028699;28;20819;-15
2022/08/18 10:12:15;;;;;;;4.50;4.10;;;;;;;;;;5024962;28;20234;-15
2022/08/18 10:15:14;;;;;;;7.80;4.50;;;;;;;;;;5027363;28;20249;-15
2022/08/18 10:18:02;;;;;;;7.63;4.40;;;;;;;;;;5028191;28;20333;-15
2022/08/18 10:20:34;;;;;;;5.05;4.32;;;;;;;;;;5026526;28;20305;-16
2022/08/18 10:23:03;;;;;;;8.05;4.07;;;;;;;;;;5027403;28;20249;-15
2022/08/18 10:25:37;;;;;;;5.68;4.10;;;;;;;;;;5027536;28;20238;-16
2022/08/18 10:28:05;;;;;;;4.63;4.05;;;;;;;;;;5027421;28;20234;-16
2022/08/18 10:30:57;;;;;;;8.02;4.50;;;;;;;;;;5026814;28;20230;-16
2022/08/18 10:33:51;;;;;;;6.38;3.80;;;;;;;;;;5026472;28;20826;-16
2022/08/18 10:36:32;;;;;;;6.28;4.28;;;;;;;;;;5027737;28;20242;-16
2022/08/18 10:38:59;;;;;;;8.75;4.38;;;;;;;;;;5034090;28;20246;-16
2022/08/18 10:41:28;;;;;;;6.45;4.13;;;;;;;;;;5027075;28;21036;-15
2022/08/18 10:43:57;;;;;;;6.95;4.13;;;;;;;;;;5027860;28;20238;-15
2022/08/18 10:46:25;;;;;;;3.90;3.58;;;;;;;;;;5029707;28;20230;-15
2022/08/18 10:49:04;;;;;;;6.53;3.97;;;;;;;;;;5025702;28;20238;-16
2022/08/18 10:51:35;;;;;;;6.57;3.90;;;;;;;;;;5027164;28;20241;-16
2022/08/18 10:54:23;;;;;;;12.70;3.53;;;;;;;;;;5024570;28;20246;-16
2022/08/18 10:56:57;;;;;;;6.07;4.00;;;;;;;;;;5028212;28;20849;-16
2022/08/18 10:59:26;;;;;;;5.10;3.35;;;;;;;;;;5025121;28;20816;-15
2022/08/18 11:02:01;;;;;;;15.38;4.28;;;;;;;;;;5029215;28;20230;-16
2022/08/18 11:04:30;;;;;;;13.25;3.90;;;;;;;;;;5025884;28;20301;-16
2022/08/18 11:07:05;;;;;;;13.27;3.72;;;;;;;;;;5024782;28;20239;-15
2022/08/18 11:09:52;;;;;;;10.50;3.72;;;;;;;;;;5025815;28;20234;-16
2022/08/18 11:12:38;;;;;;;13.82;3.80;;;;;;;;;;5026049;28;20230;-15
2022/08/18 11:15:07;;;;;;;8.43;4.05;;;;;;;;;;5027107;28;20233;-15
2022/08/18 11:17:53;;;;;;;10.25;3.83;;;;;;;;;;5023134;28;21053;-15
2022/08/18 11:20:21;;;;;;;9.63;4.00;;;;;;;;;;5026710;28;20286;-15
2022/08/18 11:22:51;;;;;;;8.93;4.03;;;;;;;;;;5031651;28;20732;-16
2022/08/18 11:25:25;;;;;;;6.90;3.67;;;;;;;;;;5028925;28;20807;-15
2022/08/18 11:27:56;;;;;;;7.18;3.60;;;;;;;;;;5031434;28;20262;-15
2022/08/18 11:30:25;;;;;;;6.95;3.45;;;;;;;;;;5035585;28;20238;-15
2022/08/18 11:32:57;;;;;;;16.70;3.83;;;;;;;;;;5029715;28;20257;-15
2022/08/18 11:35:29;;;;;;;5.30;3.40;;;;;;;;;;5034890;28;20341;-15
2022/08/18 11:38:01;;;;;;;13.02;3.72;;;;;;;;;;5031607;28;20242;-16
2022/08/18 11:40:33;;;;;;;14.38;4.13;;;;;;;;;;5028225;28;20231;-15
2022/08/18 11:43:25;;;;;;;14.55;3.50;;;;;;;;;;5025499;28;20237;-16
2022/08/18 11:45:57;;;;;;;13.50;3.80;;;;;;;;;;5023011;28;20318;-15
2022/08/18 11:48:33;;;;;;;9.90;3.60;;;;;;;;;;5025822;28;20235;-15
2022/08/18 11:51:21;;;;;;;13.30;4.00;;;;;;;;;;5032788;28;20257;-15
2022/08/18 11:53:51;;;;;;;18.65;3.35;;;;;;;;;;5030990;28;20231;-15
2022/08/18 11:56:26;;;;;;;11.77;3.97;;;;;;;;;;5037329;28;20261;-15
2022/08/18 11:58:59;;;;;;;8.23;4.13;;;;;;;;;;5032877;28;20358;-15
2022/08/18 12:01:28;;;;;;;13.55;3.88;;;;;;;;;;5034690;28;20238;-15
2022/08/18 12:04:07;;;;;;;7.85;3.70;;;;;;;;;;5031237;28;20281;-16
2022/08/18 12:06:37;;;;;;;6.90;3.42;;;;;;;;;;5033943;28;20784;-16
2022/08/18 12:09:14;;;;;;;7.47;3.65;;;;;;;;;;5039642;28;20293;-16
2022/08/18 12:12:03;;;;;;;9.35;3.85;;;;;;;;;;5029490;28;20234;-16
2022/08/18 12:14:33;;;;;;;8.88;3.40;;;;;;;;;;5035886;28;20235;-16
2022/08/18 12:17:01;;;;;;;7.30;3.38;;;;;;;;;;5031219;28;20239;-16
2022/08/18 12:19:30;;;;;;;5.07;3.10;;;;;;;;;;5036069;28;20679;-15
2022/08/18 12:22:01;;;;;;;6.82;3.08;;;;;;;;;;5030586;28;20791;-15
2022/08/18 12:24:38;;;;;;;4.43;2.95;;;;;;;;;;5030455;28;20369;-16
2022/08/18 12:27:25;;;;;;;3.95;2.55;;;;;;;;;;5027532;28;20287;-16
2022/08/18 12:30:00;;;;;;;5.75;2.65;;;;;;;;;;5030164;28;20266;-16
2022/08/18 12:32:28;;;;;;;7.88;2.92;;;;;;;;;;5027871;28;20381;-16
2022/08/18 12:35:16;;;;;;;6.43;2.65;;;;;;;;;;5032407;28;20246;-16
2022/08/18 12:38:03;;;;;;;4.63;2.53;;;;;;;;;;5039149;28;20230;-16
2022/08/18 12:40:39;;;;;;;2.97;2.55;;;;;;;;;;5029655;28;20612;-15
2022/08/18 12:43:07;;;;;;;4.68;2.85;;;;;;;;;;5028644;28;20239;-15
2022/08/18 12:45:36;;;;;;;5.03;2.60;;;;;;;;;;5028653;28;20272;-15
2022/08/18 12:48:05;;;;;;;3.05;2.75;;;;;;;;;;5028970;28;20862;-16
2022/08/18 12:50:33;;;;;;;2.90;2.60;;;;;;;;;;5028410;28;20247;-16
2022/08/18 12:53:20;;;;;;;5.93;2.55;;;;;;;;;;5029516;28;20227;-16
2022/08/18 12:56:04;;;;;;;3.38;2.90;;;;;;;;;;5027185;28;20238;-15
2022/08/18 12:58:34;;;;;;;3.10;2.58;;;;;;;;;;5032369;28;20905;-16
2022/08/18 13:01:04;;;;;;;3.45;2.78;;;;;;;;;;5028083;28;20235;-16
2022/08/18 13:03:31;;;;;;;5.35;2.80;;;;;;;;;;5029373;28;20230;-15
2022/08/18 13:06:03;;;;;;;5.28;3.00;;;;;;;;;;5027333;28;21039;-17
2022/08/18 13:08:32;;;;;;;3.05;2.60;;;;;;;;;;5030187;28;20246;-16
2022/08/18 13:11:14;;;;;;;6.63;2.60;;;;;;;;;;5028026;28;20853;-15
2022/08/18 13:13:50;;;;;;;5.65;2.95;;;;;;;;;;5023769;28;20285;-16
2022/08/18 13:16:23;;;;;;;6.57;2.90;;;;;;;;;;5028453;28;20249;-15
2022/08/18 13:19:05;;;;;;;4.18;2.55;;;;;;;;;;5028733;28;20244;-16
2022/08/18 13:21:33;;;;;;;5.97;3.28;;;;;;;;;;5027576;28;20242;-16
2022/08/18 13:24:07;;;;;;;4.88;3.08;;;;;;;;;;5028381;28;20241;-16
2022/08/18 13:26:36;;;;;;;4.85;3.20;;;;;;;;;;5028902;28;20227;-16
2022/08/18 13:29:04;;;;;;;5.78;2.92;;;;;;;;;;5024313;28;20952;-16
2022/08/18 13:31:38;;;;;;;6.45;2.70;;;;;;;;;;5028558;28;20698;-17
2022/08/18 13:34:06;;;;;;;5.15;3.20;;;;;;;;;;5028015;28;20233;-16
2022/08/18 13:36:44;;;;;;;5.13;3.00;;;;;;;;;;5030278;28;21114;-16
2022/08/18 13:39:14;;;;;;;3.25;2.95;;;;;;;;;;5026983;28;20346;-15
2022/08/18 13:41:42;;;;;;;6.43;2.78;;;;;;;;;;5029843;28;20239;-16
2022/08/18 13:44:13;;;;;;;6.75;2.70;;;;;;;;;;5028384;28;20321;-15
2022/08/18 13:46:47;;;;;;;4.50;2.80;;;;;;;;;;5029462;28;20230;-16
2022/08/18 13:49:14;;;;;;;4.07;3.00;;;;;;;;;;5025752;28;20245;-15
2022/08/18 13:51:44;;;;;;;4.80;2.47;;;;;;;;;;5026599;28;20242;-16
2022/08/18 13:54:14;;;;;;;4.07;2.58;;;;;;;;;;5024326;28;20841;-16
2022/08/18 13:56:57;;;;;;;3.78;2.90;;;;;;;;;;5021860;28;20234;-16
2022/08/18 13:59:30;;;;;;;3.70;3.10;;;;;;;;;;5024652;28;20706;-15
2022/08/18 14:01:59;;;;;;;4.32;2.33;;;;;;;;;;5026507;28;20698;-16
2022/08/18 14:04:26;;;;;;;4.32;2.80;;;;;;;;;;5026935;28;20254;-16
2022/08/18 14:06:54;;;;;;;3.58;2.60;;;;;;;;;;5025704;28;20323;-15
2022/08/18 14:09:24;;;;;;;4.43;2.78;;;;;;;;;;5028485;28;21033;-16
2022/08/18 14:12:03;;;;;;;5.13;3.03;;;;;;;;;;5026260;28;20230;-16
2022/08/18 14:14:32;;;;;;;4.28;2.80;;;;;;;;;;5027298;28;20734;-15
2022/08/18 14:17:01;;;;;;;4.38;2.70;;;;;;;;;;5026997;28;20245;-16
2022/08/18 14:27:49;;;;;;;4.68;2.85;;;;;;;;;;5023409;28;20721;-16
2022/08/18 14:30:23;;;;;;;4.35;3.30;;;;;;;;;;5027528;28;20852;-16
2022/08/18 14:32:52;;;;;;;6.00;2.70;;;;;;;;;;5029312;28;20260;-15
2022/08/18 14:35:21;;;;;;;3.53;2.63;;;;;;;;;;5027843;28;20317;-16
2022/08/18 14:38:01;;;;;;;13.05;3.33;;;;;;;;;;5034131;28;20337;-16
2022/08/18 14:40:28;;;;;;;10.98;3.33;;;;;;;;;;5026643;28;20242;-15
2022/08/18 14:42:57;;;;;;;5.35;3.53;;;;;;;;;;5029465;28;20234;-15
2022/08/18 14:45:25;;;;;;;16.30;3.45;;;;;;;;;;5025929;28;21022;-15
2022/08/18 14:48:03;;;;;;;5.43;3.00;;;;;;;;;;5026719;28;20249;-16
2022/08/18 14:50:34;;;;;;;4.88;3.08;;;;;;;;;;5025953;28;20293;-15
2022/08/18 14:53:01;;;;;;;6.35;3.17;;;;;;;;;;5027655;28;20710;-16
2022/08/18 14:55:28;;;;;;;10.93;3.30;;;;;;;;;;5026275;28;20698;-16
2022/08/18 14:57:57;;;;;;;8.88;3.03;;;;;;;;;;5028954;28;20249;-16
2022/08/18 15:00:25;;;;;;;10.65;3.08;;;;;;;;;;5020295;28;20235;-15
2022/08/18 15:02:53;;;;;;;6.43;3.10;;;;;;;;;;5026287;28;20235;-15
2022/08/18 15:05:22;;;;;;;5.57;3.13;;;;;;;;;;5027486;28;20265;-16
2022/08/18 15:07:51;;;;;;;7.60;2.88;;;;;;;;;;5025796;28;20234;-16
2022/08/18 15:10:19;;;;;;;5.95;3.00;;;;;;;;;;5026970;28;21014;-16
2022/08/18 15:12:50;;;;;;;4.35;2.78;;;;;;;;;;5024501;28;20239;-17
2022/08/18 15:15:17;;;;;;;6.88;3.05;;;;;;;;;;5027479;28;21062;-15
2022/08/18 15:17:48;;;;;;;4.53;2.50;;;;;;;;;;5027007;28;20238;-14
2022/08/18 15:20:19;;;;;;;3.03;2.55;;;;;;;;;;5025775;28;20239;-17
2022/08/18 15:25:58;;;;;;;5.30;2.65;;;;;;;;;;4978724;28;20228;-17